»·PEaware :: PHTIM KSNA-KAVX

PHTIM :: KSNA-KAVX

FLIGHT INFORMATION

Flight Status: Arrived
Operator: Unknown
More flights by this operator :: More flights under this callsign
Pilot: Tim P. (6337)
Aircraft: CESSNA 172 SKYHAWK
(C172)
More flights by this aircraft type
Origin: KSNA John Wayne-Orange Co
United States
Destination: KAVX Catalina
United States
More flights between these airports :: More routes between these airports
Route: SLI V21 SXC
File this flight plan on PilotEdge
Remarks: I-07 rating
Altitude:
(Current/Filed)
4,000ft
Speed:
(Current/Filed)
105kts
Departed: 02-Dec-18 08:18 AM
Arrived: 02-Dec-18 08:49 AM
Distance/Time
Traveled:
32nm/0:31
Distance/Time
To Go:
Arrived

Flight Plot

Page will automatically refresh every two minutes.


Map Options




Map Legend


Flown Route
Filed Route
Departure Airport
Arrival Airport
Navaid (VOR, NDB)
Fix

Horizontal Profiles

Position Reports

Time Latitude Longitude Heading Altitude Ground
Speed
02-Dec-18 07:05 33.671252 -117.867524 213 60ft 0kts
02-Dec-18 07:06 33.671252 -117.867524 213 60ft 0kts
02-Dec-18 07:07 33.671252 -117.867524 213 60ft 0kts
02-Dec-18 07:08 33.671252 -117.867524 213 60ft 0kts
02-Dec-18 07:09 33.671252 -117.867524 213 60ft 0kts
02-Dec-18 07:10 33.671252 -117.867524 213 60ft 0kts
02-Dec-18 07:11 33.671252 -117.867524 213 60ft 0kts
02-Dec-18 07:12 33.671252 -117.867524 213 60ft 0kts
02-Dec-18 07:13 33.671252 -117.867524 213 60ft 0kts
02-Dec-18 07:14 33.671252 -117.867524 213 60ft 0kts
02-Dec-18 07:15 33.671252 -117.867524 213 60ft 0kts
02-Dec-18 07:16 33.671252 -117.867524 213 60ft 0kts
02-Dec-18 07:17 33.671252 -117.867524 213 60ft 0kts
02-Dec-18 07:18 33.671252 -117.867524 213 60ft 0kts
02-Dec-18 07:19 33.671252 -117.867524 213 60ft 0kts
02-Dec-18 07:20 33.671252 -117.867524 213 60ft 0kts
02-Dec-18 07:21 33.671252 -117.867524 213 60ft 0kts
02-Dec-18 07:22 33.671252 -117.867524 213 60ft 0kts
02-Dec-18 07:23 33.671252 -117.867524 213 60ft 0kts
02-Dec-18 07:24 33.671252 -117.867524 213 60ft 0kts
02-Dec-18 07:25 33.671252 -117.867524 213 60ft 0kts
02-Dec-18 07:26 33.671252 -117.867524 213 60ft 0kts
02-Dec-18 07:27 33.671252 -117.867524 213 60ft 0kts
02-Dec-18 07:28 33.671252 -117.867524 213 60ft 0kts
02-Dec-18 07:29 33.671252 -117.867524 213 60ft 0kts
02-Dec-18 07:30 33.671252 -117.867524 213 60ft 0kts
02-Dec-18 07:31 33.671252 -117.867524 213 60ft 0kts
02-Dec-18 07:32 33.671252 -117.867524 213 60ft 0kts
02-Dec-18 07:33 33.671252 -117.867524 213 60ft 0kts
02-Dec-18 07:34 33.671252 -117.867524 213 60ft 0kts
02-Dec-18 07:35 33.671252 -117.867524 212 60ft 0kts
02-Dec-18 07:36 33.671252 -117.867524 213 60ft 0kts
02-Dec-18 07:37 33.671252 -117.867524 213 60ft 0kts
02-Dec-18 07:38 33.671252 -117.867524 213 60ft 0kts
02-Dec-18 07:39 33.671252 -117.867524 213 60ft 0kts
02-Dec-18 07:40 33.671252 -117.867524 213 60ft 0kts
02-Dec-18 07:41 33.671252 -117.867524 213 60ft 0kts
02-Dec-18 07:42 33.671252 -117.867524 213 60ft 0kts
02-Dec-18 07:43 33.671252 -117.867524 213 60ft 0kts
02-Dec-18 07:44 33.671252 -117.867524 213 60ft 0kts
02-Dec-18 07:45 33.671252 -117.867524 213 60ft 0kts
02-Dec-18 07:46 33.671252 -117.867524 213 60ft 0kts
02-Dec-18 07:47 33.671252 -117.867524 213 60ft 0kts
02-Dec-18 07:48 33.671252 -117.867524 213 60ft 0kts
02-Dec-18 07:49 33.671252 -117.867524 213 60ft 0kts
02-Dec-18 07:50 33.671252 -117.867524 213 60ft 0kts
02-Dec-18 07:51 33.671252 -117.867524 213 60ft 0kts
02-Dec-18 07:52 33.671252 -117.867524 213 60ft 0kts
02-Dec-18 07:53 33.671252 -117.867524 213 60ft 0kts
02-Dec-18 07:54 33.671252 -117.867524 213 60ft 0kts
02-Dec-18 07:55 33.671252 -117.867524 213 60ft 0kts
02-Dec-18 07:56 33.671252 -117.867524 213 60ft 0kts
02-Dec-18 07:57 33.671252 -117.867524 213 60ft 0kts
02-Dec-18 07:58 33.671252 -117.867524 213 60ft 0kts
02-Dec-18 07:59 33.671252 -117.867524 213 60ft 0kts
02-Dec-18 08:00 33.671252 -117.867524 213 60ft 0kts
02-Dec-18 08:01 33.671252 -117.867524 213 60ft 0kts
02-Dec-18 08:02 33.671252 -117.867524 213 60ft 0kts
02-Dec-18 08:03 33.671252 -117.867524 213 60ft 0kts
02-Dec-18 08:04 33.671252 -117.867524 213 60ft 0kts
02-Dec-18 08:05 33.671252 -117.867524 213 60ft 0kts
02-Dec-18 08:06 33.671252 -117.867524 213 60ft 0kts
02-Dec-18 08:07 33.671252 -117.867524 213 60ft 0kts
02-Dec-18 08:08 33.671252 -117.867524 213 60ft 0kts
02-Dec-18 08:09 33.671252 -117.867524 213 60ft 0kts
02-Dec-18 08:10 33.671252 -117.867524 213 60ft 0kts
02-Dec-18 08:11 33.671252 -117.867524 213 60ft 0kts
02-Dec-18 08:12 33.671252 -117.867524 213 60ft 0kts
02-Dec-18 08:13 33.671455 -117.868024 305 60ft 7kts
02-Dec-18 08:14 33.673527 -117.866958 337 60ft 9kts
02-Dec-18 08:15 33.676562 -117.865508 28 60ft 15kts
02-Dec-18 08:16 33.679964 -117.863595 268 60ft 2kts
02-Dec-18 08:17 33.679964 -117.863598 268 60ft 0kts
02-Dec-18 08:18 33.679964 -117.863598 268 60ft 0kts
02-Dec-18 08:19 33.679964 -117.863598 268 60ft 0kts
02-Dec-18 08:20 33.679964 -117.863598 268 60ft 0kts
02-Dec-18 08:21 33.678912 -117.864930 207 60ft 47kts
02-Dec-18 08:22 33.660805 -117.878213 229 655ft 85kts
02-Dec-18 08:23 33.644793 -117.899712 225 1500ft 87kts
02-Dec-18 08:24 33.627291 -117.919883 217 2267ft 89kts
02-Dec-18 08:25 33.610967 -117.942370 246 2978ft 89kts
02-Dec-18 08:26 33.598181 -117.968299 242 3645ft 91kts
02-Dec-18 08:27 33.584398 -117.995410 245 4075ft 110kts
02-Dec-18 08:28 33.568880 -118.026398 246 4068ft 108kts
02-Dec-18 08:29 33.554013 -118.057349 244 4043ft 108kts
02-Dec-18 08:30 33.537523 -118.087530 239 4000ft 109kts
02-Dec-18 08:31 33.520827 -118.116818 243 3959ft 108kts
02-Dec-18 08:32 33.506070 -118.147470 251 3920ft 105kts
02-Dec-18 08:33 33.496854 -118.179848 257 3907ft 102kts
02-Dec-18 08:34 33.484167 -118.210154 243 3894ft 104kts
02-Dec-18 08:35 33.468575 -118.238561 247 3904ft 100kts
02-Dec-18 08:36 33.455063 -118.267105 248 3927ft 98kts
02-Dec-18 08:37 33.440045 -118.294195 242 3951ft 97kts
02-Dec-18 08:38 33.425998 -118.320849 247 4052ft 93kts
02-Dec-18 08:39 33.412780 -118.347630 245 4133ft 93kts
02-Dec-18 08:40 33.398168 -118.374049 246 4172ft 96kts
02-Dec-18 08:41 33.389698 -118.402505 316 4140ft 90kts
02-Dec-18 08:42 33.413886 -118.411217 337 4152ft 92kts
02-Dec-18 08:43 33.440195 -118.409092 355 4106ft 97kts
02-Dec-18 08:44 33.468210 -118.404428 7 3912ft 106kts
02-Dec-18 08:45 33.496798 -118.406042 327 3423ft 105kts
02-Dec-18 08:46 33.520337 -118.422192 333 3450ft 90kts
02-Dec-18 08:47 33.516088 -118.402928 171 3367ft 119kts
02-Dec-18 08:48 33.484170 -118.410891 202 2875ft 116kts
02-Dec-18 08:49 33.451433 -118.414034 180 2235ft 115kts
02-Dec-18 08:50 33.425978 -118.408826 143 2136ft 91kts
02-Dec-18 08:51 33.410442 -118.406477 240 1697ft 67kts
02-Dec-18 08:52 33.403826 -118.417040 113 1570ft 2kts
02-Dec-18 08:53 33.403826 -118.417037 113 1570ft 0kts
02-Dec-18 08:54 33.403471 -118.415451 59 1570ft 7kts
02-Dec-18 08:55 33.403821 -118.414932 241 1570ft 0kts
02-Dec-18 08:56 33.403821 -118.414932 241 1570ft 0kts

Navigation Log

Ident Type
Flight plan parsing failed, navigation log unavailable